createdAt,value
2023-05-19T00:02:00.280Z,78.10
2023-05-19T00:04:27.763Z,78.44
2023-05-19T00:06:54.743Z,78.66
2023-05-19T00:09:21.493Z,78.87
2023-05-19T00:11:48.287Z,79.13
2023-05-19T00:14:14.991Z,79.04
2023-05-19T00:16:42.372Z,79.41
2023-05-19T00:19:10.184Z,79.43
2023-05-19T00:21:40.418Z,79.08
2023-05-19T00:24:07.241Z,79.29
2023-05-19T00:26:34.005Z,79.80
2023-05-19T00:29:00.932Z,80.35
2023-05-19T00:31:27.514Z,80.08
2023-05-19T00:33:54.153Z,80.34
2023-05-19T00:36:20.764Z,80.37
2023-05-19T00:38:47.276Z,80.64
2023-05-19T00:41:13.885Z,80.71
2023-05-19T00:43:40.377Z,80.39
2023-05-19T00:46:07.560Z,80.50
2023-05-19T00:48:34.187Z,81.58
2023-05-19T00:51:05.203Z,81.23
2023-05-19T00:53:33.505Z,81.34
2023-05-19T00:56:00.818Z,81.65
2023-05-19T00:58:30.247Z,81.63
2023-05-19T01:01:03.864Z,81.90
2023-05-19T01:03:36.203Z,81.74
2023-05-19T01:06:07.369Z,82.34
2023-05-19T01:08:36.220Z,82.11
2023-05-19T01:11:03.216Z,81.89
2023-05-19T01:13:30.385Z,82.32
2023-05-19T01:16:02.536Z,82.82
2023-05-19T01:18:40.872Z,83.30
2023-05-19T01:21:46.582Z,82.80
2023-05-19T01:24:32.364Z,83.11
2023-05-19T01:27:24.180Z,83.60
2023-05-19T01:30:23.325Z,83.93
2023-05-19T01:32:53.432Z,84.20
2023-05-19T01:35:23.995Z,84.44
2023-05-19T01:37:54.413Z,84.63
2023-05-19T01:40:22.835Z,84.51
2023-05-19T01:42:52.467Z,84.99
2023-05-19T01:45:19.561Z,84.92
2023-05-19T01:47:49.810Z,84.96
2023-05-19T01:50:16.423Z,85.67
2023-05-19T01:52:43.150Z,85.06
2023-05-19T01:55:10.237Z,85.87
2023-05-19T01:58:11.511Z,86.08
2023-05-19T02:01:00.108Z,86.57
2023-05-19T02:03:44.614Z,86.18
2023-05-19T02:06:35.602Z,86.31
2023-05-19T02:09:24.302Z,85.96
2023-05-19T02:12:11.862Z,85.95
2023-05-19T02:15:06.085Z,86.33
2023-05-19T02:17:36.365Z,86.75
2023-05-19T02:20:05.078Z,87.67
2023-05-19T02:22:31.822Z,87.72
2023-05-19T02:24:58.477Z,87.42
2023-05-19T02:27:25.038Z,87.75
2023-05-19T02:29:52.365Z,88.08
2023-05-19T02:32:19.006Z,88.13
2023-05-19T02:34:45.711Z,88.80
2023-05-19T02:37:14.582Z,89.19
2023-05-19T02:39:42.082Z,89.14
2023-05-19T02:42:08.609Z,88.94
2023-05-19T02:44:35.253Z,89.07
2023-05-19T02:47:01.790Z,89.28
2023-05-19T02:49:30.974Z,89.79
2023-05-19T02:51:57.580Z,89.94
2023-05-19T02:54:24.142Z,89.58
2023-05-19T02:56:50.668Z,89.04
2023-05-19T02:59:17.183Z,89.33
2023-05-19T03:01:43.713Z,89.49
2023-05-19T03:04:10.465Z,89.27
2023-05-19T03:06:37.683Z,89.53
2023-05-19T03:09:04.191Z,89.63
2023-05-19T03:11:30.975Z,89.74
2023-05-19T03:13:58.593Z,89.74
2023-05-19T03:16:25.147Z,89.75
2023-05-19T03:18:52.286Z,89.92
2023-05-19T03:21:18.803Z,90.46
2023-05-19T03:23:45.486Z,90.95
2023-05-19T03:26:11.965Z,90.96
2023-05-19T03:28:38.528Z,90.52
2023-05-19T03:31:05.092Z,90.40
2023-05-19T03:33:31.735Z,90.48
2023-05-19T03:35:59.032Z,90.19
2023-05-19T03:38:25.694Z,90.62
2023-05-19T03:40:53.528Z,90.54
2023-05-19T03:43:19.973Z,90.20
2023-05-19T03:45:46.596Z,89.98
2023-05-19T03:48:13.703Z,90.17
2023-05-19T03:50:40.239Z,89.93
2023-05-19T03:53:06.812Z,90.12
2023-05-19T03:55:33.765Z,89.89
2023-05-19T03:58:00.301Z,90.30
2023-05-19T04:00:26.892Z,90.74
2023-05-19T04:02:53.493Z,91.24
2023-05-19T04:05:20.181Z,91.40
2023-05-19T04:07:46.871Z,91.47
2023-05-19T04:10:13.649Z,91.01
2023-05-19T04:12:40.206Z,90.73
2023-05-19T04:15:07.326Z,90.92
2023-05-19T04:17:34.189Z,90.84
2023-05-19T04:20:01.106Z,90.84
2023-05-19T04:22:27.870Z,90.81
2023-05-19T04:24:55.010Z,91.02
2023-05-19T04:27:21.941Z,90.78
2023-05-19T04:29:49.605Z,90.62
2023-05-19T04:32:18.122Z,91.16
2023-05-19T04:34:47.604Z,91.09
2023-05-19T04:37:16.213Z,90.72
2023-05-19T04:39:45.184Z,91.07
2023-05-19T04:42:12.028Z,90.89
2023-05-19T04:44:42.374Z,90.62
2023-05-19T04:47:10.372Z,90.69
2023-05-19T04:49:40.041Z,91.13
2023-05-19T04:52:10.718Z,91.33
2023-05-19T04:54:38.301Z,91.00
2023-05-19T04:57:05.657Z,91.01
2023-05-19T04:59:32.436Z,91.27
2023-05-19T05:01:58.972Z,90.83
2023-05-19T05:04:26.024Z,90.86
2023-05-19T05:06:52.512Z,90.77
2023-05-19T05:09:19.977Z,90.59
2023-05-19T05:11:46.990Z,90.92
2023-05-19T05:14:13.923Z,90.96
2023-05-19T05:16:40.865Z,90.85
2023-05-19T05:19:07.879Z,90.41
2023-05-19T05:21:34.724Z,90.63
2023-05-19T05:24:01.505Z,91.32
2023-05-19T05:26:33.248Z,91.13
2023-05-19T05:28:59.788Z,91.41
2023-05-19T05:31:26.559Z,90.94
2023-05-19T05:33:53.268Z,91.08
2023-05-19T05:36:19.858Z,91.04
2023-05-19T05:38:46.369Z,91.07
2023-05-19T05:41:12.949Z,90.72
2023-05-19T05:43:39.537Z,90.50
2023-05-19T05:46:06.112Z,90.60
2023-05-19T05:48:33.231Z,90.33
2023-05-19T05:51:00.269Z,89.49
2023-05-19T05:53:30.990Z,89.65
2023-05-19T05:55:58.039Z,89.63
2023-05-19T05:58:24.605Z,89.28
2023-05-19T06:00:53.443Z,88.39
2023-05-19T06:03:24.186Z,88.12
2023-05-19T06:05:51.075Z,87.89
2023-05-19T06:08:17.959Z,87.03
2023-05-19T06:10:47.092Z,87.84
2023-05-19T06:13:14.012Z,86.89
2023-05-19T06:15:41.188Z,87.16
2023-05-19T06:18:07.846Z,86.73
2023-05-19T06:20:34.631Z,86.67
2023-05-19T06:23:01.347Z,85.64
2023-05-19T06:25:27.848Z,85.75
2023-05-19T06:27:54.583Z,85.36
2023-05-19T06:30:22.170Z,84.97
2023-05-19T06:32:48.925Z,83.68
2023-05-19T06:35:15.536Z,83.18
2023-05-19T06:37:42.240Z,83.13
2023-05-19T06:40:09.389Z,83.07
2023-05-19T06:42:35.901Z,82.51
2023-05-19T06:45:02.430Z,82.06
2023-05-19T06:47:29.008Z,81.93
2023-05-19T06:49:55.931Z,81.18
2023-05-19T06:52:23.022Z,80.31
2023-05-19T06:54:50.149Z,79.59
2023-05-19T06:57:16.764Z,79.20
2023-05-19T06:59:43.636Z,79.09
2023-05-19T07:02:10.244Z,78.52
2023-05-19T07:04:36.878Z,77.76
2023-05-19T07:07:03.508Z,77.60
2023-05-19T07:09:29.994Z,77.00
2023-05-19T07:11:56.575Z,75.98
2023-05-19T07:14:23.384Z,75.58
2023-05-19T07:16:50.004Z,75.11
2023-05-19T07:19:16.973Z,74.26
2023-05-19T07:21:43.537Z,74.49
2023-05-19T07:24:10.116Z,73.52
2023-05-19T07:26:36.653Z,74.01
2023-05-19T07:29:03.304Z,73.96
2023-05-19T07:31:29.885Z,73.01
2023-05-19T07:33:57.266Z,73.78
2023-05-19T07:36:23.831Z,73.29
2023-05-19T07:38:50.608Z,71.57
2023-05-19T07:41:17.164Z,71.85
2023-05-19T07:43:43.760Z,70.78
2023-05-19T07:46:10.294Z,68.42
2023-05-19T07:48:37.172Z,70.33
2023-05-19T07:51:03.986Z,69.16
2023-05-19T07:53:30.601Z,70.24
2023-05-19T07:55:58.533Z,68.43
2023-05-19T07:58:25.393Z,69.19
2023-05-19T08:00:53.262Z,67.54
2023-05-19T08:03:20.804Z,67.39
2023-05-19T08:05:47.687Z,65.27
2023-05-19T08:08:16.957Z,64.18
2023-05-19T08:10:43.660Z,65.13
2023-05-19T08:13:10.442Z,65.05
2023-05-19T08:15:37.054Z,62.43
2023-05-19T08:18:05.364Z,63.41
2023-05-19T08:20:32.842Z,63.21
2023-05-19T08:22:59.900Z,61.34
2023-05-19T08:25:26.526Z,62.07
2023-05-19T08:27:53.054Z,60.12
2023-05-19T08:30:19.733Z,61.10
2023-05-19T08:32:46.472Z,60.60
2023-05-19T08:35:12.983Z,60.19
2023-05-19T08:37:39.555Z,58.80
2023-05-19T08:40:07.171Z,59.69
2023-05-19T08:42:33.906Z,59.64
2023-05-19T08:45:02.040Z,57.00
2023-05-19T08:47:28.851Z,57.55
2023-05-19T08:50:05.205Z,57.91
2023-05-19T08:52:47.870Z,57.88
2023-05-19T08:55:21.724Z,56.01
2023-05-19T08:57:49.660Z,55.83
2023-05-19T09:00:17.229Z,57.17
2023-05-19T09:02:55.079Z,52.75
2023-05-19T09:05:28.346Z,54.16
2023-05-19T09:07:55.116Z,54.08
2023-05-19T09:10:21.845Z,52.89
2023-05-19T09:12:49.636Z,50.77
2023-05-19T09:15:19.112Z,53.66
2023-05-19T09:17:48.088Z,53.17
2023-05-19T09:20:16.775Z,51.87
2023-05-19T09:22:50.695Z,52.83
2023-05-19T09:25:22.919Z,52.55
2023-05-19T09:27:50.575Z,50.46
2023-05-19T09:30:17.963Z,50.51
2023-05-19T09:32:45.489Z,49.55
2023-05-19T09:35:16.993Z,48.85
2023-05-19T09:37:44.071Z,48.78
2023-05-19T09:40:11.916Z,49.28
2023-05-19T09:42:40.574Z,47.74
2023-05-19T09:45:09.360Z,46.50
2023-05-19T09:47:38.173Z,48.87
2023-05-19T09:50:09.257Z,47.08
2023-05-19T09:52:37.245Z,48.19
2023-05-19T09:55:05.219Z,47.59
2023-05-19T09:57:38.610Z,45.00
2023-05-19T10:00:15.836Z,45.77
2023-05-19T10:02:46.997Z,48.13
2023-05-19T10:05:17.820Z,46.48
2023-05-19T10:07:45.786Z,46.53
2023-05-19T10:10:13.971Z,44.47
2023-05-19T10:12:41.542Z,43.83
2023-05-19T10:15:12.730Z,45.61
2023-05-19T10:17:40.718Z,44.02
2023-05-19T10:20:17.505Z,43.82
2023-05-19T10:22:46.257Z,42.39
2023-05-19T10:25:18.744Z,43.40
2023-05-19T10:27:53.252Z,41.76
2023-05-19T10:30:30.176Z,41.99
2023-05-19T10:32:59.365Z,42.25
2023-05-19T10:35:56.872Z,43.71
2023-05-19T10:38:42.928Z,40.92
2023-05-19T10:41:35.082Z,42.24
2023-05-19T10:44:09.975Z,41.74
2023-05-19T10:46:36.667Z,40.73
2023-05-19T10:49:03.303Z,41.84
2023-05-19T10:51:34.004Z,39.94
2023-05-19T10:54:10.972Z,41.05
2023-05-19T10:56:42.403Z,42.40
2023-05-19T10:59:32.982Z,42.30
2023-05-19T11:02:04.834Z,41.16
2023-05-19T11:04:48.861Z,40.24
2023-05-19T11:07:19.539Z,39.96
2023-05-19T11:09:51.566Z,40.05
2023-05-19T11:12:24.784Z,41.28
2023-05-19T11:14:55.507Z,39.04
2023-05-19T11:17:25.389Z,42.01
2023-05-19T11:19:56.516Z,40.84
2023-05-19T11:22:29.276Z,39.72
2023-05-19T11:24:56.469Z,37.42
2023-05-19T11:27:35.544Z,37.21
2023-05-19T11:30:14.869Z,38.54
2023-05-19T11:32:44.569Z,42.07
2023-05-19T11:35:11.319Z,40.34
2023-05-19T11:37:37.935Z,36.37
2023-05-19T11:40:09.392Z,38.04
2023-05-19T11:42:37.094Z,38.31
2023-05-19T11:45:06.964Z,36.78
2023-05-19T11:47:42.086Z,36.31
2023-05-19T11:50:13.988Z,35.89
2023-05-19T11:52:44.976Z,35.23
2023-05-19T11:55:19.065Z,37.50
2023-05-19T11:58:04.541Z,36.95
2023-05-19T12:00:39.236Z,34.93
2023-05-19T12:03:06.868Z,37.03
2023-05-19T12:05:39.910Z,35.55
2023-05-19T12:08:08.867Z,36.98
2023-05-19T12:10:35.905Z,36.26
2023-05-19T12:13:03.652Z,36.27
2023-05-19T12:15:32.553Z,37.24
2023-05-19T12:18:00.969Z,36.89
2023-05-19T12:20:29.268Z,37.81
2023-05-19T12:22:56.355Z,35.35
2023-05-19T12:25:23.662Z,37.11
2023-05-19T12:27:52.735Z,34.32
2023-05-19T12:30:26.131Z,35.87
2023-05-19T12:32:53.962Z,35.75
2023-05-19T12:35:20.619Z,34.75
2023-05-19T12:37:49.133Z,36.47
2023-05-19T12:40:16.888Z,33.74
2023-05-19T12:42:48.170Z,34.21
2023-05-19T12:45:15.273Z,33.41
2023-05-19T12:47:41.885Z,36.17
2023-05-19T12:50:10.341Z,34.69
2023-05-19T12:53:03.110Z,33.25
2023-05-19T12:55:30.029Z,34.07
2023-05-19T12:57:58.164Z,31.70
2023-05-19T13:00:28.114Z,34.33
2023-05-19T13:03:08.650Z,34.13
2023-05-19T13:05:40.560Z,35.27
2023-05-19T13:08:09.386Z,33.54
2023-05-19T13:10:38.408Z,35.93
2023-05-19T13:13:05.873Z,35.09
2023-05-19T13:15:37.645Z,36.78
2023-05-19T13:18:06.758Z,34.66
2023-05-19T13:20:34.394Z,34.27
2023-05-19T13:23:01.451Z,33.74
2023-05-19T13:25:28.490Z,35.55
2023-05-19T13:27:56.689Z,34.92
2023-05-19T13:30:23.800Z,35.93
2023-05-19T13:32:52.475Z,36.04
2023-05-19T13:35:19.738Z,36.01
2023-05-19T13:37:46.413Z,33.78
2023-05-19T13:40:13.513Z,33.77
2023-05-19T13:42:40.812Z,32.04
2023-05-19T13:45:07.952Z,33.13
2023-05-19T13:47:34.499Z,33.43
2023-05-19T13:50:02.318Z,33.23
2023-05-19T13:52:30.484Z,32.98
2023-05-19T13:54:57.354Z,32.52
2023-05-19T13:57:25.459Z,35.84
2023-05-19T14:00:02.044Z,34.68
2023-05-19T14:02:29.969Z,33.34
2023-05-19T14:04:56.832Z,33.96
2023-05-19T14:07:23.628Z,33.72
2023-05-19T14:09:51.205Z,34.31
2023-05-19T14:12:17.902Z,35.40
2023-05-19T14:14:44.696Z,35.45
2023-05-19T14:17:12.262Z,36.74
2023-05-19T14:19:38.927Z,36.78
2023-05-19T14:22:05.969Z,34.08
2023-05-19T14:24:32.582Z,36.28
2023-05-19T14:26:59.111Z,36.14
2023-05-19T14:29:25.642Z,35.26
2023-05-19T14:31:52.281Z,34.37
2023-05-19T14:34:21.136Z,35.07
2023-05-19T14:36:48.743Z,37.08
2023-05-19T14:39:15.562Z,37.01
2023-05-19T14:41:42.308Z,37.42
2023-05-19T14:44:08.847Z,37.20
2023-05-19T14:46:35.545Z,35.87
2023-05-19T14:49:03.284Z,36.19
2023-05-19T14:51:29.812Z,37.29
2023-05-19T14:53:56.460Z,36.62
2023-05-19T14:56:23.024Z,39.04
2023-05-19T14:58:49.531Z,36.73
2023-05-19T15:01:16.047Z,37.73
2023-05-19T15:03:42.684Z,39.19
2023-05-19T15:06:10.750Z,37.69
2023-05-19T15:08:37.857Z,35.85
2023-05-19T15:11:04.637Z,37.15
2023-05-19T15:13:31.119Z,36.83
2023-05-19T15:16:12.300Z,37.61
2023-05-19T15:18:42.680Z,37.84
2023-05-19T15:21:09.293Z,36.79
2023-05-19T15:23:35.806Z,38.00
2023-05-19T15:26:02.445Z,38.57
2023-05-19T15:28:29.012Z,37.26
2023-05-19T15:30:55.586Z,36.38
2023-05-19T15:33:22.158Z,37.50
2023-05-19T15:35:51.701Z,38.26
2023-05-19T15:38:21.165Z,37.45
2023-05-19T15:40:47.730Z,37.12
2023-05-19T15:43:14.397Z,38.11
2023-05-19T15:45:41.040Z,36.49
2023-05-19T15:48:07.865Z,37.92
2023-05-19T15:50:34.709Z,36.86
2023-05-19T15:53:01.545Z,36.03
2023-05-19T15:55:28.141Z,37.18
2023-05-19T15:57:54.670Z,37.49
2023-05-19T16:00:21.510Z,37.07
2023-05-19T16:02:48.219Z,36.81
2023-05-19T16:05:14.785Z,36.85
2023-05-19T16:07:42.110Z,36.71
2023-05-19T16:10:09.139Z,35.75
2023-05-19T16:12:36.586Z,37.40
2023-05-19T16:15:03.729Z,37.95
2023-05-19T16:17:30.471Z,36.59
2023-05-19T16:19:57.236Z,36.92
2023-05-19T16:22:24.865Z,36.96
2023-05-19T16:24:52.358Z,37.93
2023-05-19T16:27:19.197Z,37.17
2023-05-19T16:29:45.939Z,37.29
2023-05-19T16:32:12.902Z,39.35
2023-05-19T16:34:39.765Z,37.83
2023-05-19T16:37:06.607Z,35.63
2023-05-19T16:39:35.964Z,37.23
2023-05-19T16:42:03.330Z,36.32
2023-05-19T16:44:29.884Z,35.68
2023-05-19T16:46:56.410Z,36.11
2023-05-19T16:49:22.946Z,35.03
2023-05-19T16:51:49.754Z,35.67
2023-05-19T16:54:16.266Z,36.59
2023-05-19T16:56:42.754Z,36.76
2023-05-19T16:59:09.610Z,37.87
2023-05-19T17:01:36.223Z,36.64
2023-05-19T17:04:02.817Z,35.44
2023-05-19T17:06:29.382Z,38.01
2023-05-19T17:08:55.980Z,35.49
2023-05-19T17:11:22.878Z,35.25
2023-05-19T17:13:49.464Z,36.42
2023-05-19T17:16:16.121Z,36.38
2023-05-19T17:18:43.832Z,37.45
2023-05-19T17:21:10.692Z,36.70
2023-05-19T17:23:37.926Z,36.95
2023-05-19T17:26:04.945Z,38.70
2023-05-19T17:28:31.750Z,36.68
2023-05-19T17:30:58.453Z,38.47
2023-05-19T17:33:25.015Z,38.08
2023-05-19T17:35:51.704Z,38.74
2023-05-19T17:38:18.244Z,38.19
2023-05-19T17:40:44.816Z,38.16
2023-05-19T17:43:11.371Z,38.06
2023-05-19T17:45:37.955Z,39.24
2023-05-19T17:48:05.002Z,38.59
2023-05-19T17:50:31.893Z,37.85
2023-05-19T17:52:58.880Z,38.51
2023-05-19T17:55:30.109Z,36.43
2023-05-19T17:57:57.380Z,39.05
2023-05-19T18:00:25.178Z,38.91
2023-05-19T18:02:52.393Z,38.53
2023-05-19T18:05:19.403Z,39.07
2023-05-19T18:07:46.258Z,37.66
2023-05-19T18:10:15.384Z,38.59
2023-05-19T18:12:41.983Z,37.63
2023-05-19T18:15:08.854Z,38.71
2023-05-19T18:17:35.520Z,39.15
2023-05-19T18:20:02.377Z,40.33
2023-05-19T18:22:28.982Z,39.29
2023-05-19T18:24:56.204Z,40.32
2023-05-19T18:27:22.714Z,40.32
2023-05-19T18:29:49.230Z,41.00
2023-05-19T18:32:17.740Z,41.63
2023-05-19T18:34:44.387Z,41.69
2023-05-19T18:37:10.925Z,42.86
2023-05-19T18:39:37.527Z,43.09
2023-05-19T18:42:04.180Z,43.51
2023-05-19T18:44:30.762Z,42.49
2023-05-19T18:46:57.255Z,42.54
2023-05-19T18:49:25.028Z,42.03
2023-05-19T18:51:51.890Z,42.49
2023-05-19T18:54:19.458Z,42.45
2023-05-19T18:56:46.087Z,45.11
2023-05-19T18:59:12.800Z,43.65
2023-05-19T19:01:39.537Z,44.82
2023-05-19T19:04:06.240Z,45.30
2023-05-19T19:06:32.833Z,45.13
2023-05-19T19:08:59.337Z,45.02
2023-05-19T19:11:26.291Z,45.29
2023-05-19T19:13:55.403Z,45.48
2023-05-19T19:16:22.397Z,45.42
2023-05-19T19:18:49.074Z,46.71
2023-05-19T19:21:15.691Z,46.72
2023-05-19T19:23:42.250Z,46.68
2023-05-19T19:26:09.494Z,46.60
2023-05-19T19:28:36.503Z,46.79
2023-05-19T19:31:03.264Z,47.27
2023-05-19T19:33:29.824Z,46.84
2023-05-19T19:35:56.512Z,47.67
2023-05-19T19:38:23.173Z,48.54
2023-05-19T19:40:51.845Z,48.24
2023-05-19T19:43:18.624Z,47.46
2023-05-19T19:45:45.171Z,48.00
2023-05-19T19:48:12.182Z,48.42
2023-05-19T19:50:38.786Z,47.49
2023-05-19T19:53:05.399Z,48.50
2023-05-19T19:55:31.973Z,49.79
2023-05-19T19:57:58.560Z,48.81
2023-05-19T20:00:25.135Z,49.15
2023-05-19T20:03:04.288Z,48.87
2023-05-19T20:05:31.813Z,49.05
2023-05-19T20:07:58.491Z,49.40
2023-05-19T20:10:25.097Z,49.51
2023-05-19T20:12:51.938Z,49.88
2023-05-19T20:15:18.741Z,49.93
2023-05-19T20:17:45.935Z,50.13
2023-05-19T20:20:12.921Z,49.76
2023-05-19T20:22:39.499Z,50.19
2023-05-19T20:25:06.923Z,50.52
2023-05-19T20:27:33.584Z,50.66
2023-05-19T20:30:00.200Z,51.54
2023-05-19T20:32:26.823Z,51.65
2023-05-19T20:34:53.978Z,51.32
2023-05-19T20:37:22.090Z,51.54
2023-05-19T20:39:48.682Z,51.64
2023-05-19T20:42:15.195Z,51.48
2023-05-19T20:44:41.929Z,51.97
2023-05-19T20:47:08.876Z,52.70
2023-05-19T20:49:35.485Z,52.85
2023-05-19T20:52:02.220Z,52.23
2023-05-19T20:54:28.799Z,53.00
2023-05-19T20:56:55.487Z,53.19
2023-05-19T20:59:22.109Z,53.35
2023-05-19T21:01:48.686Z,53.41
2023-05-19T21:04:15.349Z,53.17
2023-05-19T21:06:41.890Z,54.40
2023-05-19T21:09:08.767Z,53.97
2023-05-19T21:11:35.503Z,54.36
2023-05-19T21:14:04.174Z,54.36
2023-05-19T21:16:31.586Z,54.59
2023-05-19T21:18:58.332Z,54.96
2023-05-19T21:21:26.217Z,55.24
2023-05-19T21:23:52.802Z,55.57
2023-05-19T21:26:19.264Z,55.59
2023-05-19T21:28:46.173Z,55.98
2023-05-19T21:31:12.804Z,57.15
2023-05-19T21:33:39.401Z,57.57
2023-05-19T21:36:06.116Z,58.68
2023-05-19T21:38:32.640Z,58.96
2023-05-19T21:40:59.209Z,59.30
2023-05-19T21:43:25.976Z,59.86
2023-05-19T21:45:52.577Z,59.53
2023-05-19T21:48:19.252Z,59.98
2023-05-19T21:50:45.777Z,59.62
2023-05-19T21:53:12.271Z,59.88
2023-05-19T21:55:39.392Z,60.81
2023-05-19T21:58:06.178Z,60.53
2023-05-19T22:00:33.034Z,61.09
2023-05-19T22:03:01.041Z,61.70
2023-05-19T22:05:29.777Z,61.94
2023-05-19T22:07:56.500Z,62.40
2023-05-19T22:10:23.169Z,62.66
2023-05-19T22:12:49.898Z,63.31
2023-05-19T22:15:16.444Z,63.25
2023-05-19T22:17:43.182Z,63.16
2023-05-19T22:20:10.220Z,63.70
2023-05-19T22:22:36.739Z,64.06
2023-05-19T22:25:03.881Z,64.25
2023-05-19T22:27:30.687Z,64.19
2023-05-19T22:29:57.328Z,64.49
2023-05-19T22:32:24.081Z,64.68
2023-05-19T22:34:50.879Z,64.94
2023-05-19T22:37:17.469Z,65.32
2023-05-19T22:39:44.160Z,65.38
2023-05-19T22:42:11.089Z,65.51
2023-05-19T22:44:37.619Z,65.94
2023-05-19T22:47:04.310Z,65.96
2023-05-19T22:49:30.915Z,66.26
2023-05-19T22:51:57.435Z,66.02
2023-05-19T22:54:24.023Z,66.42
2023-05-19T22:56:50.590Z,65.75
2023-05-19T22:59:18.029Z,65.76
2023-05-19T23:01:46.505Z,66.14
2023-05-19T23:04:13.953Z,65.78
2023-05-19T23:06:41.598Z,65.80
2023-05-19T23:09:08.138Z,65.76
2023-05-19T23:11:35.864Z,66.27
2023-05-19T23:14:02.535Z,66.34
2023-05-19T23:16:29.102Z,66.44
2023-05-19T23:18:55.685Z,66.59
2023-05-19T23:21:22.278Z,66.76
2023-05-19T23:23:49.693Z,67.00
2023-05-19T23:26:16.237Z,67.12
2023-05-19T23:28:43.189Z,67.13
2023-05-19T23:31:10.424Z,66.88
2023-05-19T23:33:37.041Z,67.51
2023-05-19T23:36:08.138Z,67.08
2023-05-19T23:38:35.534Z,67.21
2023-05-19T23:41:02.109Z,67.19
2023-05-19T23:43:28.804Z,67.83
2023-05-19T23:45:55.517Z,67.85
2023-05-19T23:48:22.012Z,68.11
2023-05-19T23:50:48.586Z,68.56
2023-05-19T23:53:15.150Z,69.20
2023-05-19T23:55:42.273Z,69.35
2023-05-19T23:58:08.884Z,69.57
